Chrysanthemum — C6XO4 — position and weather

sailwx.info

Track history (hours):
 
Tides and Currents Weather Stations Pressure Air Temp Water Temp Dewpoint Dewpoint Depression Visibility Wind Speed Wind Dir Waves Ship Positions

Chrysanthemum

Last reported at 2017-Jan-28 07:11 UTC. Time now 2017-Mar-01 17:50 UTC.
Position N 01°56' E 102°19'.
Warning: this ship's position is 32 days out of date.

Length 244 m; draft 8 m.

Type: Ship. MMSI: 311015300.

Date/timePositionNaut miles runAvg speedWind from/ knotsBaromVisibWave heightAir tempDewpointWater temp
2017-Jan-28 07:11N 01°56' E 102°19'914.0
2017-Jan-28 06:33N 01°52' E 102°27'1513.8
2017-Jan-28 05:29N 01°46' E 102°41'6912.8
2017-Jan-28 00:09N 01°11' E 103°40'711.7
2017-Jan-27 23:33N 01°10' E 103°47'1212.3
2017-Jan-27 22:33N 01°15' E 103°58'2 2.1
2017-Jan-27 21:33N 01°17' E 103°57'0 0.0
2017-Jan-27 20:33N 01°17' E 103°57'0 0.0
2017-Jan-27 19:33N 01°17' E 103°57'0 0.0
2017-Jan-27 18:33N 01°17' E 103°57'0 0.0
2017-Jan-27 16:27N 01°17' E 103°57'0 0.0
2017-Jan-27 15:27N 01°17' E 103°57'0 0.0
2017-Jan-27 14:33N 01°17' E 103°57'0 0.0
2017-Jan-27 13:33N 01°17' E 103°57'0 0.0
2017-Jan-27 11:27N 01°17' E 103°57'0 0.1
2017-Jan-27 10:21N 01°17' E 103°57'0 0.1
2017-Jan-27 09:33N 01°17' E 103°58'0 0.0
2017-Jan-27 08:30N 01°17' E 103°58'0 0.0
2017-Jan-27 07:30N 01°17' E 103°58'0 0.1
2017-Jan-27 06:27N 01°17' E 103°58'0 0.1
2017-Jan-27 05:33N 01°17' E 103°58'0 0.0
2017-Jan-27 04:33N 01°17' E 103°58'0 0.1
2017-Jan-27 03:30N 01°17' E 103°57'0 0.0
2017-Jan-27 02:33N 01°17' E 103°57'0 0.1
2017-Jan-27 01:33N 01°17' E 103°57'0 0.0
2017-Jan-27 00:33N 01°17' E 103°57'0 0.0
2017-Jan-26 23:33N 01°17' E 103°57'0 0.0
2017-Jan-26 22:33N 01°17' E 103°57'0 0.0
2017-Jan-26 21:33N 01°17' E 103°57'0 0.0
2017-Jan-26 20:33N 01°17' E 103°57'0 0.0
2017-Jan-26 19:24N 01°17' E 103°57'0 0.0
2017-Jan-26 18:33N 01°17' E 103°57'0 0.0
2017-Jan-26 17:30N 01°17' E 103°57'0 0.0
2017-Jan-26 16:33N 01°17' E 103°57'0 0.0
2017-Jan-26 15:33N 01°17' E 103°57'0 0.0
2017-Jan-26 14:33N 01°17' E 103°57'0 0.0
2017-Jan-26 13:21N 01°17' E 103°57'0 0.0
2017-Jan-26 12:30N 01°17' E 103°57'0 0.1
2017-Jan-26 11:27N 01°17' E 103°57'0 0.0
2017-Jan-26 10:30N 01°17' E 103°57'0 0.1
2017-Jan-26 09:24N 01°17' E 103°58'0 0.1
2017-Jan-26 08:27N 01°17' E 103°58'0 0.1
2017-Jan-26 07:33N 01°17' E 103°58'0 0.0
2017-Jan-26 06:33N 01°17' E 103°58'0 0.0
2017-Jan-26 05:33N 01°17' E 103°58'0 0.0
2017-Jan-26 04:33N 01°17' E 103°58'0 0.1
2017-Jan-26 03:21N 01°17' E 103°58'0 0.0
2017-Jan-26 02:33N 01°17' E 103°58'0 0.1
2017-Jan-26 01:33N 01°17' E 103°58'0 0.1
2017-Jan-26 00:33N 01°17' E 103°57'0 0.1
2017-Jan-25 23:33N 01°17' E 103°57'0 0.0
2017-Jan-25 22:24N 01°17' E 103°57'0 0.0
2017-Jan-25 21:27N 01°17' E 103°57'0 0.0
2017-Jan-25 20:33N 01°17' E 103°57'0 0.0
2017-Jan-25 19:21N 01°17' E 103°57'0 0.0
2017-Jan-25 18:33N 01°17' E 103°57'0 0.0
2017-Jan-25 17:30N 01°17' E 103°57'0 0.2
2017-Jan-25 16:33N 01°17' E 103°57'2 2.0
2017-Jan-25 15:33N 01°15' E 103°58'3 3.2
2017-Jan-25 14:32N 01°16' E 104°01'8 8.6
2017-Jan-25 13:33N 01°12' E 103°54'  
Track history (hours):
 
Tides and Currents Weather Stations Pressure Air Temp Water Temp Dewpoint Dewpoint Depression Visibility Wind Speed Wind Dir Waves Ship Positions

Chrysanthemum

Last reported at 2017-Jan-28 07:11 UTC. Time now 2017-Mar-01 17:50 UTC.
Position N 01°56' E 102°19'.
Warning: this ship's position is 32 days out of date.

Length 244 m; draft 8 m.

Type: Ship. MMSI: 311015300.

Date/timePositionNaut miles runAvg speedWind from/ knotsBaromVisibWave heightAir tempDewpointWater temp
2017-Jan-28 07:11N 01°56' E 102°19'914.0
2017-Jan-28 06:33N 01°52' E 102°27'1513.8
2017-Jan-28 05:29N 01°46' E 102°41'6912.8
2017-Jan-28 00:09N 01°11' E 103°40'711.7
2017-Jan-27 23:33N 01°10' E 103°47'1212.3
2017-Jan-27 22:33N 01°15' E 103°58'2 2.1
2017-Jan-27 21:33N 01°17' E 103°57'0 0.0
2017-Jan-27 20:33N 01°17' E 103°57'0 0.0
2017-Jan-27 19:33N 01°17' E 103°57'0 0.0
2017-Jan-27 18:33N 01°17' E 103°57'0 0.0
2017-Jan-27 16:27N 01°17' E 103°57'0 0.0
2017-Jan-27 15:27N 01°17' E 103°57'0 0.0
2017-Jan-27 14:33N 01°17' E 103°57'0 0.0
2017-Jan-27 13:33N 01°17' E 103°57'0 0.0
2017-Jan-27 11:27N 01°17' E 103°57'0 0.1
2017-Jan-27 10:21N 01°17' E 103°57'0 0.1
2017-Jan-27 09:33N 01°17' E 103°58'0 0.0
2017-Jan-27 08:30N 01°17' E 103°58'0 0.0
2017-Jan-27 07:30N 01°17' E 103°58'0 0.1
2017-Jan-27 06:27N 01°17' E 103°58'0 0.1
2017-Jan-27 05:33N 01°17' E 103°58'0 0.0
2017-Jan-27 04:33N 01°17' E 103°58'0 0.1
2017-Jan-27 03:30N 01°17' E 103°57'0 0.0
2017-Jan-27 02:33N 01°17' E 103°57'0 0.1
2017-Jan-27 01:33N 01°17' E 103°57'0 0.0
2017-Jan-27 00:33N 01°17' E 103°57'0 0.0
2017-Jan-26 23:33N 01°17' E 103°57'0 0.0
2017-Jan-26 22:33N 01°17' E 103°57'0 0.0
2017-Jan-26 21:33N 01°17' E 103°57'0 0.0
2017-Jan-26 20:33N 01°17' E 103°57'0 0.0
2017-Jan-26 19:24N 01°17' E 103°57'0 0.0
2017-Jan-26 18:33N 01°17' E 103°57'0 0.0
2017-Jan-26 17:30N 01°17' E 103°57'0 0.0
2017-Jan-26 16:33N 01°17' E 103°57'0 0.0
2017-Jan-26 15:33N 01°17' E 103°57'0 0.0
2017-Jan-26 14:33N 01°17' E 103°57'0 0.0
2017-Jan-26 13:21N 01°17' E 103°57'0 0.0
2017-Jan-26 12:30N 01°17' E 103°57'0 0.1
2017-Jan-26 11:27N 01°17' E 103°57'0 0.0
2017-Jan-26 10:30N 01°17' E 103°57'0 0.1
2017-Jan-26 09:24N 01°17' E 103°58'0 0.1
2017-Jan-26 08:27N 01°17' E 103°58'0 0.1
2017-Jan-26 07:33N 01°17' E 103°58'0 0.0
2017-Jan-26 06:33N 01°17' E 103°58'0 0.0
2017-Jan-26 05:33N 01°17' E 103°58'0 0.0
2017-Jan-26 04:33N 01°17' E 103°58'0 0.1
2017-Jan-26 03:21N 01°17' E 103°58'0 0.0
2017-Jan-26 02:33N 01°17' E 103°58'0 0.1
2017-Jan-26 01:33N 01°17' E 103°58'0 0.1
2017-Jan-26 00:33N 01°17' E 103°57'0 0.1
2017-Jan-25 23:33N 01°17' E 103°57'0 0.0
2017-Jan-25 22:24N 01°17' E 103°57'0 0.0
2017-Jan-25 21:27N 01°17' E 103°57'0 0.0
2017-Jan-25 20:33N 01°17' E 103°57'0 0.0
2017-Jan-25 19:21N 01°17' E 103°57'0 0.0
2017-Jan-25 18:33N 01°17' E 103°57'0 0.0
2017-Jan-25 17:30N 01°17' E 103°57'0 0.2
2017-Jan-25 16:33N 01°17' E 103°57'2 2.0
2017-Jan-25 15:33N 01°15' E 103°58'3 3.2
2017-Jan-25 14:32N 01°16' E 104°01'8 8.6
2017-Jan-25 13:33N 01°12' E 103°54'  

Dump ship's entire track history